AFL645 VTBS-UHWW
Flight info
| Callsign | AFL645 |
|---|---|
| Flight time | N/A |
| Altitude | 33000 |
| Route | ALBOS1G ALBOS R474 LAVOS/K0859F330 R474 TEBAK/K0857S1005 R474 WUY R343 GOSMA W82 UPMAT W56 VYK G212 SOTMU B339 HUR B334 TGO G341 WQG B451 SANAR SANAR2N |
| Aircraft | B738/M-SDE2E3FGHIRWXY/LB1 |
Departure
| Time | N/A |
|---|---|
| Airport | Suvarnabhumi Airport (VTBS) |
Arrival
| Time | 2026-04-16 21:57 |
|---|---|
| Airport | Vladivostok International Airport (UHWW) |
| Time | Latitude | Longitude | Altitude | Speed | Heading |
|---|---|---|---|---|---|
| 2026-04-16 21:43 | 43.24568 | 130.93286 | 14481 ft | 360 kts | 99° |
| 2026-04-16 21:43 | 43.24400 | 130.96749 | 14118 ft | 359 kts | 99° |
| 2026-04-16 21:44 | 43.24234 | 131.00164 | 13733 ft | 358 kts | 99° |
| 2026-04-16 21:44 | 43.24072 | 131.03568 | 13365 ft | 357 kts | 99° |
| 2026-04-16 21:44 | 43.23915 | 131.06908 | 13018 ft | 354 kts | 99° |
| 2026-04-16 21:44 | 43.23759 | 131.10231 | 12929 ft | 343 kts | 99° |
| 2026-04-16 21:45 | 43.23601 | 131.13519 | 12351 ft | 349 kts | 99° |
| 2026-04-16 21:45 | 43.23442 | 131.16799 | 11969 ft | 342 kts | 98° |
| 2026-04-16 21:45 | 43.23285 | 131.20026 | 11605 ft | 335 kts | 99° |
| 2026-04-16 21:45 | 43.23087 | 131.23162 | 11320 ft | 326 kts | 101° |
| 2026-04-16 21:46 | 43.22866 | 131.26226 | 10991 ft | 320 kts | 101° |
| 2026-04-16 21:46 | 43.22645 | 131.29236 | 10660 ft | 315 kts | 101° |
| 2026-04-16 21:46 | 43.22426 | 131.32215 | 10395 ft | 312 kts | 100° |
| 2026-04-16 21:46 | 43.22215 | 131.35149 | 10275 ft | 307 kts | 100° |
| 2026-04-16 21:47 | 43.22009 | 131.38030 | 10121 ft | 299 kts | 100° |
| 2026-04-16 21:47 | 43.21810 | 131.40828 | 9888 ft | 292 kts | 101° |
| 2026-04-16 21:47 | 43.21609 | 131.43607 | 9283 ft | 296 kts | 100° |
| 2026-04-16 21:47 | 43.21600 | 131.46411 | 8906 ft | 296 kts | 84° |
| 2026-04-16 21:48 | 43.21990 | 131.49173 | 8586 ft | 294 kts | 80° |
| 2026-04-16 21:48 | 43.22427 | 131.51915 | 8238 ft | 295 kts | 79° |
| 2026-04-16 21:48 | 43.22862 | 131.54668 | 7895 ft | 295 kts | 79° |
| 2026-04-16 21:48 | 43.23287 | 131.57407 | 7580 ft | 292 kts | 79° |
| 2026-04-16 21:49 | 43.23702 | 131.60145 | 7300 ft | 295 kts | 79° |
| 2026-04-16 21:49 | 43.24113 | 131.62895 | 6971 ft | 293 kts | 78° |
| 2026-04-16 21:49 | 43.24513 | 131.65602 | 6663 ft | 287 kts | 78° |
| 2026-04-16 21:49 | 43.24904 | 131.68262 | 6364 ft | 282 kts | 78° |
| 2026-04-16 21:50 | 43.25287 | 131.70875 | 6055 ft | 276 kts | 78° |
| 2026-04-16 21:50 | 43.25659 | 131.73428 | 5767 ft | 270 kts | 78° |
| 2026-04-16 21:50 | 43.26024 | 131.75935 | 5490 ft | 265 kts | 78° |
| 2026-04-16 21:50 | 43.26377 | 131.78364 | 5221 ft | 260 kts | 78° |
| 2026-04-16 21:51 | 43.26726 | 131.80776 | 4962 ft | 256 kts | 78° |
| 2026-04-16 21:51 | 43.27069 | 131.83145 | 4706 ft | 250 kts | 78° |
| 2026-04-16 21:51 | 43.27583 | 131.85363 | 4406 ft | 240 kts | 62° |
| 2026-04-16 21:51 | 43.28367 | 131.87343 | 4119 ft | 232 kts | 58° |
| 2026-04-16 21:52 | 43.29168 | 131.89222 | 3816 ft | 224 kts | 59° |
| 2026-04-16 21:52 | 43.29969 | 131.90998 | 3659 ft | 209 kts | 56° |
| 2026-04-16 21:52 | 43.30716 | 131.92649 | 3456 ft | 200 kts | 60° |
| 2026-04-16 21:52 | 43.31390 | 131.94274 | 3197 ft | 193 kts | 62° |
| 2026-04-16 21:53 | 43.32027 | 131.95854 | 2949 ft | 187 kts | 64° |
| 2026-04-16 21:53 | 43.32438 | 131.96882 | 2782 ft | 184 kts | 65° |
| 2026-04-16 21:53 | 43.33249 | 131.98909 | 2456 ft | 178 kts | 66° |
| 2026-04-16 21:53 | 43.33829 | 132.00355 | 2250 ft | 168 kts | 66° |
| 2026-04-16 21:54 | 43.34204 | 132.01291 | 2065 ft | 169 kts | 67° |
| 2026-04-16 21:54 | 43.34769 | 132.02705 | 1836 ft | 169 kts | 67° |
| 2026-04-16 21:54 | 43.35333 | 132.04111 | 1591 ft | 167 kts | 67° |
| 2026-04-16 21:54 | 43.35888 | 132.05493 | 1355 ft | 164 kts | 67° |
| 2026-04-16 21:55 | 43.36431 | 132.06853 | 1131 ft | 161 kts | 65° |
| 2026-04-16 21:55 | 43.36965 | 132.08180 | 891 ft | 156 kts | 64° |
| 2026-04-16 21:55 | 43.37651 | 132.09888 | 603 ft | 154 kts | 64° |
| 2026-04-16 21:55 | 43.38000 | 132.10756 | 466 ft | 154 kts | 63° |
| 2026-04-16 21:56 | 43.38519 | 132.12046 | 249 ft | 154 kts | 63° |
| 2026-04-16 21:56 | 43.39034 | 132.13326 | 92 ft | 150 kts | 63° |
| 2026-04-16 21:56 | 43.39494 | 132.14476 | 66 ft | 124 kts | 59° |
| 2026-04-16 21:56 | 43.39856 | 132.15369 | 68 ft | 90 kts | 60° |
| 2026-04-16 21:57 | 43.40101 | 132.15974 | 66 ft | 56 kts | 60° |
| 2026-04-16 21:57 | 43.40242 | 132.16325 | 63 ft | 36 kts | 61° |
| 2026-04-16 21:57 | 43.40359 | 132.16613 | 63 ft | 33 kts | 60° |
| 2026-04-16 21:57 | 43.40434 | 132.16809 | 67 ft | 16 kts | 77° |
| 2026-04-16 21:58 | 43.40375 | 132.16898 | 60 ft | 13 kts | 150° |
| 2026-04-16 21:58 | 43.40299 | 132.16953 | 64 ft | 12 kts | 152° |
| 2026-04-16 21:58 | 43.40235 | 132.16917 | 67 ft | 10 kts | 244° |
| 2026-04-16 21:58 | 43.40203 | 132.16832 | 66 ft | 10 kts | 241° |
| 2026-04-16 21:59 | 43.40168 | 132.16744 | 69 ft | 11 kts | 242° |
| 2026-04-16 21:59 | 43.40126 | 132.16641 | 66 ft | 15 kts | 241° |
| 2026-04-16 21:59 | 43.40057 | 132.16468 | 69 ft | 27 kts | 241° |
| 2026-04-16 21:59 | 43.39967 | 132.16245 | 62 ft | 23 kts | 241° |
| 2026-04-16 22:00 | 43.39907 | 132.16115 | 63 ft | 9 kts | 208° |
| 2026-04-16 22:00 | 43.39863 | 132.16131 | 61 ft | 8 kts | 149° |
| 2026-04-16 22:00 | 43.39772 | 132.16201 | 66 ft | 17 kts | 151° |
| 2026-04-16 22:00 | 43.39753 | 132.16308 | 62 ft | 9 kts | 63° |
| 2026-04-16 22:01 | 43.39770 | 132.16365 | 64 ft | 3 kts | 104° |
| 2026-04-16 22:01 | 43.39745 | 132.16391 | 65 ft | 6 kts | 152° |
| 2026-04-16 22:01 | 43.39704 | 132.16422 | 64 ft | 4 kts | 151° |
| 2026-04-16 22:01 | 43.39697 | 132.16427 | 66 ft | 0 kts | 152° |
| 2026-04-16 22:02 | 43.39696 | 132.16427 | 67 ft | 0 kts | 152° |